Lakeville, Indiana
Current Conditions -  °F | °C
As of 1:54 PM on Tuesday 27 Jan 2015 (Local Time) from KSBN Reporting Station
Clear Clear  
Wind Chill: 24°   Ceiling: Unl
Heat Index: 29°   Visibility: 10mi
Dew Point:   Wind: 5mph
Humidity: 41%   Direction: 310°NW
Pressure: 30.14"   Gusts: NA
Location:  41.52°N, 86.27°W
Report Text: KSBN 271854Z 31004KT 10SM CLR M02/M13 A3014 RMK AO2 SLP219 T10171133
Loading
Personal Weather Stations






























Interactive Weather Map New forecast layout! Learn more

10-Day Weather Forecast

Advertisements
Track Severe Weather on mobile